createdAt,value
2022-12-04T05:02:26.468Z,98469.25
2022-12-04T05:06:38.020Z,98470.28
2022-12-04T05:10:49.782Z,98471.47
2022-12-04T05:15:01.512Z,98486.66
2022-12-04T05:19:31.607Z,98493.22
2022-12-04T05:23:43.733Z,98510.31
2022-12-04T05:27:55.277Z,98514.75
2022-12-04T05:32:06.970Z,98513.81
2022-12-04T05:36:18.456Z,98515.22
2022-12-04T05:40:29.930Z,98523.41
2022-12-04T05:44:41.419Z,98512.63
2022-12-04T05:48:52.875Z,98520.84
2022-12-04T05:53:04.553Z,98514.97
2022-12-04T05:57:16.020Z,98516.41
2022-12-04T06:01:27.560Z,98509.63
2022-12-04T06:05:39.060Z,98504.59
2022-12-04T06:09:50.570Z,98487.38
2022-12-04T06:14:04.865Z,98493.03
2022-12-04T06:18:16.343Z,98500.50
2022-12-04T06:22:27.854Z,98491.59
2022-12-04T06:26:57.509Z,98511.22
2022-12-04T06:31:13.145Z,98507.25
2022-12-04T06:35:24.736Z,98499.78
2022-12-04T06:39:36.234Z,98504.22
2022-12-04T06:43:48.743Z,98502.59
2022-12-04T06:48:00.293Z,98491.47
2022-12-04T06:52:11.873Z,98488.28
2022-12-04T06:56:29.220Z,98496.00
2022-12-04T07:00:40.728Z,98502.31
2022-12-04T07:04:56.277Z,98494.28
2022-12-04T07:09:21.806Z,98499.16
2022-12-04T07:13:34.398Z,98503.00
2022-12-04T07:17:48.138Z,98504.88
2022-12-04T07:21:59.652Z,98512.47
2022-12-04T07:26:14.805Z,98510.84
2022-12-04T07:30:26.344Z,98517.28
2022-12-04T07:34:37.897Z,98509.59
2022-12-04T07:38:50.494Z,98522.44
2022-12-04T07:43:02.007Z,98522.22
2022-12-04T07:47:13.615Z,98526.66
2022-12-04T07:51:29.714Z,98521.97
2022-12-04T07:55:43.127Z,98517.31
2022-12-04T08:00:01.450Z,98520.06
2022-12-04T08:04:23.417Z,98521.38
2022-12-04T08:08:40.197Z,98529.22
2022-12-04T08:12:51.859Z,98525.84
2022-12-04T08:17:03.404Z,98535.81
2022-12-04T08:21:19.241Z,98531.34
2022-12-04T08:25:30.912Z,98531.09
2022-12-04T08:29:42.501Z,98528.09
2022-12-04T08:33:57.030Z,98527.72
2022-12-04T08:38:08.876Z,98526.00
2022-12-04T08:42:26.199Z,98518.75
2022-12-04T08:46:40.595Z,98526.19
2022-12-04T08:50:52.701Z,98527.75
2022-12-04T08:55:04.515Z,98528.81
2022-12-04T08:59:16.040Z,98537.09
2022-12-04T09:03:30.872Z,98537.25
2022-12-04T09:07:42.875Z,98532.56
2022-12-04T09:11:54.504Z,98529.03
2022-12-04T09:16:09.375Z,98530.56
2022-12-04T09:20:21.024Z,98532.31
2022-12-04T09:24:32.563Z,98531.88
2022-12-04T09:28:44.138Z,98539.13
2022-12-04T09:32:56.154Z,98534.44
2022-12-04T09:37:07.683Z,98533.25
2022-12-04T09:41:25.396Z,98538.41
2022-12-04T09:45:48.286Z,98524.38
2022-12-04T09:50:17.116Z,98533.16
2022-12-04T09:54:38.704Z,98528.59
2022-12-04T09:58:59.960Z,98537.00
2022-12-04T10:03:18.328Z,98535.94
2022-12-04T10:07:41.256Z,98538.19
2022-12-04T10:12:00.003Z,98531.03
2022-12-04T10:16:28.342Z,98530.44
2022-12-04T10:20:58.029Z,98521.19
2022-12-04T10:25:15.040Z,98515.72
2022-12-04T10:29:32.560Z,98518.97
2022-12-04T10:33:51.241Z,98506.56
2022-12-04T10:38:06.489Z,98519.69
2022-12-04T10:42:31.256Z,98515.00
2022-12-04T10:46:46.047Z,98506.56
2022-12-04T10:50:58.222Z,98502.59
2022-12-04T10:55:10.388Z,98500.84
2022-12-04T10:59:22.698Z,98492.63
2022-12-04T11:03:35.362Z,98481.63
2022-12-04T11:07:49.352Z,98474.63
2022-12-04T11:12:18.720Z,98474.84
2022-12-04T11:16:37.035Z,98477.06
2022-12-04T11:20:59.977Z,98468.66
2022-12-04T11:25:17.705Z,98473.66
2022-12-04T11:29:36.190Z,98464.63
2022-12-04T11:33:53.969Z,98469.69
2022-12-04T11:38:09.847Z,98480.09
2022-12-04T11:42:27.831Z,98476.47
2022-12-04T11:46:39.406Z,98472.84
2022-12-04T11:50:53.854Z,98468.16
2022-12-04T11:55:12.360Z,98464.75
2022-12-04T11:59:37.187Z,98467.09
2022-12-04T12:04:14.956Z,98463.91
2022-12-04T12:08:43.305Z,98456.41
2022-12-04T12:13:18.605Z,98449.03
2022-12-04T12:17:49.018Z,98438.47
2022-12-04T12:22:16.606Z,98442.66
2022-12-04T12:26:55.749Z,98452.47
2022-12-04T12:32:00.741Z,98463.41
2022-12-04T12:36:15.067Z,98457.16
2022-12-04T12:40:33.949Z,98469.94
2022-12-04T12:44:53.313Z,98462.84
2022-12-04T12:49:34.914Z,98464.75
2022-12-04T12:53:51.280Z,98462.19
2022-12-04T12:58:14.091Z,98460.34
2022-12-04T13:02:30.435Z,98446.72
2022-12-04T13:06:44.288Z,98447.94
2022-12-04T13:11:07.337Z,98442.94
2022-12-04T13:15:22.139Z,98439.91
2022-12-04T13:19:44.115Z,98427.72
2022-12-04T13:24:35.028Z,98420.06
2022-12-04T13:29:11.364Z,98414.13
2022-12-04T13:33:25.809Z,98409.69
2022-12-04T13:38:07.288Z,98413.72
2022-12-04T13:42:24.075Z,98424.06
2022-12-04T13:46:42.366Z,98428.75
2022-12-04T13:51:03.765Z,98422.66
2022-12-04T13:55:35.522Z,98421.66
2022-12-04T13:59:48.770Z,98407.81
2022-12-04T14:04:00.261Z,98413.66
2022-12-04T14:08:33.133Z,98419.63
2022-12-04T14:13:05.419Z,98420.69
2022-12-04T14:17:30.603Z,98421.25
2022-12-04T14:21:44.854Z,98408.88
2022-12-04T14:25:57.783Z,98416.25
2022-12-04T14:30:31.228Z,98409.44
2022-12-04T14:34:43.189Z,98405.63
2022-12-04T14:39:31.124Z,98410.28
2022-12-04T14:43:45.378Z,98412.63
2022-12-04T14:48:40.135Z,98409.69
2022-12-04T14:53:03.652Z,98408.38
2022-12-04T14:57:49.621Z,98412.00
2022-12-04T15:02:01.088Z,98417.31
2022-12-04T15:06:30.244Z,98429.38
2022-12-04T15:11:08.247Z,98415.53
2022-12-04T15:15:25.710Z,98413.53
2022-12-04T15:19:38.142Z,98405.47
2022-12-04T15:23:50.094Z,98400.31
2022-12-04T15:28:18.655Z,98405.13
2022-12-04T15:32:32.146Z,98408.13
2022-12-04T15:37:21.748Z,98410.28
2022-12-04T15:41:37.238Z,98416.97
2022-12-04T15:45:48.692Z,98419.34
2022-12-04T15:50:15.168Z,98421.13
2022-12-04T15:54:26.668Z,98416.69
2022-12-04T15:58:39.865Z,98413.41
2022-12-04T16:02:51.817Z,98412.22
2022-12-04T16:07:03.359Z,98412.47
2022-12-04T16:11:17.759Z,98417.25
2022-12-04T16:15:41.892Z,98412.22
2022-12-04T16:19:54.710Z,98411.38
2022-12-04T16:24:07.357Z,98410.91
2022-12-04T16:28:18.884Z,98418.44
2022-12-04T16:32:33.280Z,98415.38
2022-12-04T16:36:44.873Z,98412.56
2022-12-04T16:40:56.362Z,98411.03
2022-12-04T16:45:22.269Z,98410.09
2022-12-04T16:49:33.732Z,98408.94
2022-12-04T16:53:45.228Z,98413.84
2022-12-04T16:57:56.756Z,98411.28
2022-12-04T17:02:16.895Z,98413.41
2022-12-04T17:06:28.471Z,98424.25
2022-12-04T17:10:39.968Z,98430.94
2022-12-04T17:14:51.433Z,98434.31
2022-12-04T17:19:04.591Z,98437.50
2022-12-04T17:23:16.153Z,98439.94
2022-12-04T17:27:27.700Z,98432.59
2022-12-04T17:31:39.305Z,98434.53
2022-12-04T17:35:52.968Z,98437.25
2022-12-04T17:40:10.288Z,98442.41
2022-12-04T17:44:22.031Z,98428.59
2022-12-04T17:48:33.536Z,98434.31
2022-12-04T17:52:45.030Z,98431.72
2022-12-04T17:56:58.172Z,98430.22
2022-12-04T18:01:24.488Z,98435.00
2022-12-04T18:05:35.981Z,98431.88
2022-12-04T18:09:47.548Z,98426.72
2022-12-04T18:14:04.801Z,98432.31
2022-12-04T18:18:22.541Z,98424.56
2022-12-04T18:22:34.009Z,98428.09
2022-12-04T18:26:48.062Z,98425.84
2022-12-04T18:31:03.996Z,98428.41
2022-12-04T18:35:15.461Z,98433.00
2022-12-04T18:39:26.941Z,98431.25
2022-12-04T18:43:41.627Z,98437.22
2022-12-04T18:47:53.169Z,98440.03
2022-12-04T18:52:04.650Z,98445.41
2022-12-04T18:56:17.381Z,98449.59
2022-12-04T19:00:28.849Z,98456.66
2022-12-04T19:04:40.315Z,98455.81
2022-12-04T19:08:51.764Z,98466.47
2022-12-04T19:13:03.198Z,98473.34
2022-12-04T19:17:15.111Z,98480.16
2022-12-04T19:21:26.923Z,98495.97
2022-12-04T19:25:38.600Z,98497.63
2022-12-04T19:29:50.042Z,98507.31
2022-12-04T19:34:02.121Z,98499.66
2022-12-04T19:38:13.554Z,98510.22
2022-12-04T19:42:25.066Z,98516.31
2022-12-04T19:46:37.360Z,98514.47
2022-12-04T19:50:49.549Z,98520.53
2022-12-04T19:55:01.004Z,98514.94
2022-12-04T19:59:12.633Z,98518.56
2022-12-04T20:03:24.160Z,98525.72
2022-12-04T20:07:35.707Z,98533.56
2022-12-04T20:11:47.699Z,98528.66
2022-12-04T20:16:03.944Z,98526.09
2022-12-04T20:20:15.483Z,98523.16
2022-12-04T20:24:27.043Z,98526.56
2022-12-04T20:28:39.212Z,98522.34
2022-12-04T20:32:50.703Z,98530.19
2022-12-04T20:37:02.141Z,98529.13
2022-12-04T20:41:16.039Z,98529.59
2022-12-04T20:45:27.594Z,98527.38
2022-12-04T20:49:39.111Z,98523.97
2022-12-04T20:53:52.142Z,98524.56
2022-12-04T20:58:03.904Z,98531.72
2022-12-04T21:02:15.440Z,98529.84
2022-12-04T21:06:35.771Z,98525.25
2022-12-04T21:10:47.273Z,98525.16
2022-12-04T21:15:17.381Z,98525.16
2022-12-04T21:19:29.218Z,98509.13
2022-12-04T21:23:40.772Z,98514.09
2022-12-04T21:27:52.557Z,98511.03
2022-12-04T21:32:04.996Z,98515.81
2022-12-04T21:36:16.748Z,98516.03
2022-12-04T21:40:28.270Z,98512.44
2022-12-04T21:44:39.761Z,98521.56
2022-12-04T21:48:51.246Z,98525.75
2022-12-04T21:53:02.733Z,98527.88
2022-12-04T21:57:14.278Z,98534.19
2022-12-04T22:01:26.547Z,98538.41
2022-12-04T22:05:38.065Z,98544.72
2022-12-04T22:09:49.530Z,98546.81
2022-12-04T22:14:01.053Z,98544.47
2022-12-04T22:18:13.572Z,98565.09
2022-12-04T22:22:25.130Z,98570.91
2022-12-04T22:26:37.492Z,98561.31
